createdAt,value
2018-05-26T00:00:28.529Z,17.53
2018-05-26T00:02:54.801Z,17.41
2018-05-26T00:05:21.113Z,17.42
2018-05-26T00:07:48.163Z,17.48
2018-05-26T00:10:15.191Z,17.41
2018-05-26T00:12:41.473Z,17.37
2018-05-26T00:15:07.775Z,17.40
2018-05-26T00:17:34.075Z,17.24
2018-05-26T00:20:00.372Z,17.26
2018-05-26T00:22:26.610Z,17.31
2018-05-26T00:24:53.640Z,17.23
2018-05-26T00:27:19.910Z,17.15
2018-05-26T00:29:46.193Z,17.10
2018-05-26T00:32:12.470Z,17.19
2018-05-26T00:34:39.466Z,17.17
2018-05-26T00:37:05.746Z,17.19
2018-05-26T00:39:32.765Z,17.07
2018-05-26T00:41:59.048Z,16.97
2018-05-26T00:44:26.082Z,16.94
2018-05-26T00:46:52.337Z,17.09
2018-05-26T00:49:19.338Z,16.90
2018-05-26T00:51:45.640Z,16.81
2018-05-26T00:54:11.927Z,16.72
2018-05-26T00:56:39.695Z,16.75
2018-05-26T00:59:06.002Z,16.73
2018-05-26T01:01:32.342Z,16.70
2018-05-26T01:03:58.636Z,16.86
2018-05-26T01:06:25.645Z,16.89
2018-05-26T01:08:51.973Z,16.73
2018-05-26T01:11:18.313Z,16.57
2018-05-26T01:13:44.593Z,16.54
2018-05-26T01:16:11.646Z,16.52
2018-05-26T01:18:38.667Z,16.64
2018-05-26T01:21:05.004Z,16.61
2018-05-26T01:23:31.423Z,16.43
2018-05-26T01:25:57.729Z,16.52
2018-05-26T01:28:24.033Z,16.47
2018-05-26T01:30:50.343Z,16.41
2018-05-26T01:33:16.662Z,16.32
2018-05-26T01:35:42.937Z,16.29
2018-05-26T01:38:09.921Z,16.20
2018-05-26T01:40:36.238Z,16.29
2018-05-26T01:43:03.253Z,16.24
2018-05-26T01:45:29.541Z,16.30
2018-05-26T01:47:59.546Z,16.28
2018-05-26T01:50:26.665Z,16.18
2018-05-26T01:52:52.954Z,16.21
2018-05-26T01:55:19.969Z,16.10
2018-05-26T01:57:46.276Z,16.07
2018-05-26T02:00:12.565Z,16.07
2018-05-26T02:02:39.577Z,16.05
2018-05-26T02:05:05.870Z,16.00
2018-05-26T02:07:32.898Z,16.09
2018-05-26T02:09:59.925Z,15.88
2018-05-26T02:12:26.227Z,15.85
2018-05-26T02:14:52.462Z,15.84
2018-05-26T02:17:18.750Z,15.77
2018-05-26T02:19:44.976Z,15.74
2018-05-26T02:22:11.262Z,15.74
2018-05-26T02:24:37.624Z,15.68
2018-05-26T02:27:03.945Z,15.71
2018-05-26T02:29:30.260Z,15.63
2018-05-26T02:31:56.550Z,15.57
2018-05-26T02:34:22.861Z,15.56
2018-05-26T02:36:49.194Z,15.53
2018-05-26T02:39:15.534Z,15.51
2018-05-26T02:41:41.852Z,15.53
2018-05-26T02:44:08.148Z,15.55
2018-05-26T02:46:34.470Z,15.44
2018-05-26T02:49:00.743Z,15.44
2018-05-26T02:51:27.037Z,15.42
2018-05-26T02:53:53.346Z,15.35
2018-05-26T02:56:19.616Z,15.31
2018-05-26T02:58:45.905Z,15.29
2018-05-26T03:01:12.202Z,15.28
2018-05-26T03:03:39.979Z,15.32
2018-05-26T03:06:12.477Z,15.36
2018-05-26T03:08:45.741Z,15.26
2018-05-26T03:11:18.083Z,15.23
2018-05-26T03:13:50.365Z,15.15
2018-05-26T03:16:19.526Z,15.19
2018-05-26T03:18:45.837Z,15.17
2018-05-26T03:21:12.104Z,15.14
2018-05-26T03:23:38.372Z,15.15
2018-05-26T03:26:04.670Z,15.16
2018-05-26T03:28:31.674Z,15.24
2018-05-26T03:30:57.924Z,15.21
2018-05-26T03:33:24.191Z,15.19
2018-05-26T03:35:51.198Z,15.19
2018-05-26T03:38:17.505Z,15.13
2018-05-26T03:40:43.811Z,15.14
2018-05-26T03:43:10.813Z,15.12
2018-05-26T03:45:37.097Z,15.19
2018-05-26T03:48:04.120Z,15.19
2018-05-26T03:50:31.145Z,15.26
2018-05-26T03:52:57.397Z,15.33
2018-05-26T03:55:42.986Z,15.32
2018-05-26T03:58:27.590Z,15.34
2018-05-26T04:00:53.853Z,15.29
2018-05-26T04:03:20.144Z,15.29
2018-05-26T04:05:47.186Z,15.34
2018-05-26T04:08:14.993Z,15.33
2018-05-26T04:10:41.228Z,15.38
2018-05-26T04:13:07.525Z,15.41
2018-05-26T04:15:34.561Z,15.42
2018-05-26T04:18:00.844Z,15.47
2018-05-26T04:20:27.176Z,15.53
2018-05-26T04:22:53.421Z,15.59
2018-05-26T04:25:19.735Z,15.63
2018-05-26T04:27:46.765Z,15.67
2018-05-26T04:30:13.029Z,15.69
2018-05-26T04:32:39.334Z,15.80
2018-05-26T04:35:06.337Z,15.83
2018-05-26T04:37:32.577Z,15.91
2018-05-26T04:39:58.853Z,16.00
2018-05-26T04:42:25.109Z,16.08
2018-05-26T04:44:52.157Z,16.15
2018-05-26T04:47:19.205Z,16.29
2018-05-26T04:49:46.249Z,16.36
2018-05-26T04:52:12.534Z,16.45
2018-05-26T04:54:38.797Z,16.58
2018-05-26T04:57:05.044Z,16.78
2018-05-26T04:59:31.337Z,17.29
2018-05-26T05:01:57.617Z,17.89
2018-05-26T05:04:23.920Z,18.62
2018-05-26T05:06:50.218Z,19.15
2018-05-26T05:09:17.257Z,19.79
2018-05-26T05:11:43.550Z,20.42
2018-05-26T05:14:09.880Z,21.04
2018-05-26T05:16:36.213Z,21.55
2018-05-26T05:19:02.477Z,21.90
2018-05-26T05:21:28.758Z,22.26
2018-05-26T05:23:55.786Z,22.77
2018-05-26T05:26:22.078Z,23.18
2018-05-26T05:28:48.373Z,23.51
2018-05-26T05:31:15.366Z,24.13
2018-05-26T05:33:41.633Z,24.36
2018-05-26T05:36:07.890Z,24.38
2018-05-26T05:38:34.141Z,24.31
2018-05-26T05:41:01.162Z,24.94
2018-05-26T05:43:28.185Z,25.00
2018-05-26T05:45:54.437Z,25.00
2018-05-26T05:48:20.733Z,24.83
2018-05-26T05:50:47.003Z,24.75
2018-05-26T05:53:13.277Z,24.52
2018-05-26T05:55:40.307Z,24.54
2018-05-26T05:58:06.528Z,24.74
2018-05-26T06:00:32.819Z,24.96
2018-05-26T06:02:59.097Z,25.17
2018-05-26T06:05:25.388Z,25.17
2018-05-26T06:07:52.386Z,25.08
2018-05-26T06:10:18.653Z,25.67
2018-05-26T06:12:44.954Z,25.36
2018-05-26T06:15:11.260Z,25.64
2018-05-26T06:17:37.538Z,25.61
2018-05-26T06:20:03.863Z,25.78
2018-05-26T06:22:30.137Z,25.69
2018-05-26T06:24:57.198Z,25.64
2018-05-26T06:27:23.501Z,25.74
2018-05-26T06:29:50.631Z,26.02
2018-05-26T06:32:16.935Z,25.79
2018-05-26T06:34:43.984Z,25.64
2018-05-26T06:37:10.972Z,25.57
2018-05-26T06:39:37.275Z,25.37
2018-05-26T06:42:04.306Z,25.30
2018-05-26T06:44:32.043Z,24.93
2018-05-26T06:46:58.341Z,24.90
2018-05-26T06:49:24.668Z,24.97
2018-05-26T06:51:51.679Z,25.07
2018-05-26T06:54:17.981Z,25.05
2018-05-26T06:56:44.306Z,25.18
2018-05-26T06:59:10.608Z,25.33
2018-05-26T07:01:36.903Z,25.52
2018-05-26T07:04:03.251Z,25.73
2018-05-26T07:06:29.583Z,25.63
2018-05-26T07:08:55.886Z,25.63
2018-05-26T07:11:22.190Z,25.64
2018-05-26T07:13:48.533Z,25.51
2018-05-26T07:16:14.791Z,25.39
2018-05-26T07:18:41.847Z,25.28
2018-05-26T07:21:08.904Z,25.16
2018-05-26T07:23:35.933Z,24.80
2018-05-26T07:26:02.989Z,24.80
2018-05-26T07:28:29.974Z,24.85
2018-05-26T07:30:56.299Z,24.60
2018-05-26T07:33:22.605Z,24.63
2018-05-26T07:35:48.878Z,24.55
2018-05-26T07:38:15.162Z,24.66
2018-05-26T07:40:41.478Z,24.52
2018-05-26T07:43:07.742Z,24.53
2018-05-26T07:45:34.040Z,24.47
2018-05-26T07:48:00.333Z,24.23
2018-05-26T07:50:27.391Z,24.37
2018-05-26T07:52:54.456Z,24.37
2018-05-26T07:55:20.765Z,24.38
2018-05-26T07:57:47.167Z,24.44
2018-05-26T08:00:13.452Z,24.44
2018-05-26T08:02:39.761Z,24.48
2018-05-26T08:05:06.242Z,24.45
2018-05-26T08:07:32.510Z,24.45
2018-05-26T08:09:58.766Z,24.48
2018-05-26T08:12:25.119Z,24.52
2018-05-26T08:14:51.418Z,24.60
2018-05-26T08:17:17.791Z,24.60
2018-05-26T08:19:44.057Z,24.57
2018-05-26T08:22:11.061Z,24.65
2018-05-26T08:24:37.391Z,24.67
2018-05-26T08:27:03.727Z,24.66
2018-05-26T08:29:30.041Z,24.66
2018-05-26T08:31:56.365Z,24.73
2018-05-26T08:34:22.666Z,24.73
2018-05-26T08:36:48.974Z,24.71
2018-05-26T08:39:15.271Z,24.72
2018-05-26T08:41:42.349Z,24.70
2018-05-26T08:44:08.662Z,24.85
2018-05-26T08:46:34.991Z,24.83
2018-05-26T08:49:02.052Z,24.92
2018-05-26T08:51:28.418Z,25.02
2018-05-26T08:53:54.718Z,25.16
2018-05-26T08:56:21.769Z,25.27
2018-05-26T08:58:48.862Z,25.32
2018-05-26T09:01:15.192Z,25.28
2018-05-26T09:03:41.505Z,25.36
2018-05-26T09:06:07.870Z,25.34
2018-05-26T09:08:34.173Z,25.41
2018-05-26T09:11:01.231Z,25.43
2018-05-26T09:13:27.558Z,25.39
2018-05-26T09:15:54.654Z,25.46
2018-05-26T09:18:21.670Z,25.52
2018-05-26T09:20:47.956Z,25.62
2018-05-26T09:23:14.213Z,25.68
2018-05-26T09:25:41.962Z,25.75
2018-05-26T09:28:08.246Z,25.82
2018-05-26T09:30:35.285Z,25.91
2018-05-26T09:33:02.393Z,25.95
2018-05-26T09:35:28.681Z,26.00
2018-05-26T09:37:55.787Z,25.95
2018-05-26T09:40:22.129Z,26.00
2018-05-26T09:42:48.375Z,26.07
2018-05-26T09:45:14.666Z,26.30
2018-05-26T09:47:40.931Z,26.82
2018-05-26T09:50:07.207Z,27.39
2018-05-26T09:52:34.270Z,28.14
2018-05-26T09:55:01.290Z,28.82
2018-05-26T09:57:27.550Z,29.75
2018-05-26T09:59:54.561Z,30.38
2018-05-26T10:02:20.895Z,31.18
2018-05-26T10:04:47.146Z,31.23
2018-05-26T10:07:13.487Z,32.06
2018-05-26T10:09:39.738Z,32.56
2018-05-26T10:12:06.788Z,33.22
2018-05-26T10:14:33.122Z,33.48
2018-05-26T10:16:59.417Z,34.40
2018-05-26T10:19:25.740Z,34.03
2018-05-26T10:21:52.686Z,34.51
2018-05-26T10:24:18.970Z,35.65
2018-05-26T10:26:45.237Z,35.95
2018-05-26T10:29:12.285Z,36.61
2018-05-26T10:31:38.534Z,37.33
2018-05-26T10:34:05.573Z,37.33
2018-05-26T10:36:31.829Z,38.13
2018-05-26T10:38:58.067Z,38.21
2018-05-26T10:41:25.033Z,38.18
2018-05-26T10:43:51.340Z,38.96
2018-05-26T10:46:24.373Z,39.72
2018-05-26T10:48:50.671Z,39.37
2018-05-26T10:51:17.729Z,39.97
2018-05-26T10:53:44.747Z,39.83
2018-05-26T10:56:10.985Z,40.73
2018-05-26T10:58:37.265Z,40.43
2018-05-26T11:01:03.551Z,40.53
2018-05-26T11:03:29.837Z,40.53
2018-05-26T11:05:56.125Z,41.07
2018-05-26T11:08:22.400Z,41.05
2018-05-26T11:10:49.437Z,41.46
2018-05-26T11:13:16.517Z,41.58
2018-05-26T11:15:42.817Z,41.73
2018-05-26T11:18:09.125Z,41.72
2018-05-26T11:20:35.410Z,42.07
2018-05-26T11:23:02.422Z,42.16
2018-05-26T11:25:28.708Z,41.85
2018-05-26T11:27:55.017Z,42.21
2018-05-26T11:30:21.293Z,42.18
2018-05-26T11:32:47.598Z,42.26
2018-05-26T11:35:14.622Z,42.12
2018-05-26T11:37:40.891Z,41.79
2018-05-26T11:40:07.921Z,41.57
2018-05-26T11:42:34.214Z,41.84
2018-05-26T11:45:00.490Z,41.82
2018-05-26T11:47:26.760Z,41.82
2018-05-26T11:49:53.766Z,42.07
2018-05-26T11:52:20.097Z,41.85
2018-05-26T11:54:46.381Z,41.81
2018-05-26T11:57:13.405Z,41.73
2018-05-26T11:59:39.677Z,41.64
2018-05-26T12:02:05.966Z,41.81
2018-05-26T12:04:32.257Z,41.77
2018-05-26T12:06:58.526Z,41.77
2018-05-26T12:09:24.782Z,41.81
2018-05-26T12:11:51.072Z,41.58
2018-05-26T12:14:17.337Z,41.32
2018-05-26T12:16:43.617Z,41.29
2018-05-26T12:19:10.637Z,41.59
2018-05-26T12:21:36.905Z,41.61
2018-05-26T12:24:03.978Z,41.14
2018-05-26T12:26:30.299Z,41.01
2018-05-26T12:28:57.325Z,40.93
2018-05-26T12:31:23.601Z,40.72
2018-05-26T12:33:49.874Z,40.58
2018-05-26T12:36:16.161Z,40.54
2018-05-26T12:38:43.149Z,40.15
2018-05-26T12:41:09.390Z,40.16
2018-05-26T12:43:35.705Z,40.20
2018-05-26T12:46:01.993Z,40.10
2018-05-26T12:48:28.301Z,40.09
2018-05-26T12:50:54.608Z,40.06
2018-05-26T12:53:20.929Z,39.77
2018-05-26T12:55:47.956Z,39.66
2018-05-26T12:58:14.269Z,39.42
2018-05-26T13:00:40.497Z,39.49
2018-05-26T13:03:06.746Z,39.21
2018-05-26T13:05:32.997Z,38.54
2018-05-26T13:07:59.272Z,38.22
2018-05-26T13:10:25.624Z,37.86
2018-05-26T13:12:51.865Z,37.68
2018-05-26T13:15:20.632Z,37.41
2018-05-26T13:17:46.902Z,37.30
2018-05-26T13:20:13.165Z,36.95
2018-05-26T13:22:39.449Z,36.93
2018-05-26T13:25:05.774Z,36.71
2018-05-26T13:27:32.050Z,36.56
2018-05-26T13:29:58.403Z,36.50
2018-05-26T13:32:24.717Z,36.22
2018-05-26T13:34:51.024Z,36.18
2018-05-26T13:37:17.332Z,36.07
2018-05-26T13:39:44.326Z,35.90
2018-05-26T13:42:10.617Z,35.61
2018-05-26T13:44:37.685Z,35.47
2018-05-26T13:47:03.957Z,35.44
2018-05-26T13:49:30.259Z,35.40
2018-05-26T13:51:57.331Z,35.20
2018-05-26T13:54:24.277Z,35.10
2018-05-26T13:56:52.055Z,35.09
2018-05-26T13:59:18.585Z,35.21
2018-05-26T14:01:44.853Z,35.25
2018-05-26T14:04:11.226Z,35.12
2018-05-26T14:06:37.501Z,34.93
2018-05-26T14:09:04.805Z,34.78
2018-05-26T14:11:31.061Z,34.78
2018-05-26T14:13:57.297Z,34.57
2018-05-26T14:16:24.347Z,34.59
2018-05-26T14:18:50.619Z,34.50
2018-05-26T14:21:16.904Z,34.51
2018-05-26T14:23:43.126Z,34.35
2018-05-26T14:26:09.412Z,34.32
2018-05-26T14:28:35.765Z,34.26
2018-05-26T14:31:02.019Z,33.95
2018-05-26T14:33:28.331Z,33.76
2018-05-26T14:35:54.557Z,33.78
2018-05-26T14:38:20.835Z,33.76
2018-05-26T14:40:47.109Z,33.74
2018-05-26T14:43:14.125Z,33.54
2018-05-26T14:45:40.388Z,33.35
2018-05-26T14:48:06.656Z,33.23
2018-05-26T14:50:33.210Z,33.28
2018-05-26T14:52:59.541Z,33.33
2018-05-26T14:55:25.789Z,33.37
2018-05-26T14:57:52.044Z,33.51
2018-05-26T15:00:18.354Z,33.59
2018-05-26T15:02:44.633Z,33.68
2018-05-26T15:05:11.639Z,33.65
2018-05-26T15:07:37.898Z,33.50
2018-05-26T15:10:04.197Z,33.66
2018-05-26T15:12:30.449Z,33.76
2018-05-26T15:14:56.721Z,33.87
2018-05-26T15:17:22.974Z,33.80
2018-05-26T15:19:49.253Z,33.71
2018-05-26T15:22:15.506Z,33.63
2018-05-26T15:24:42.028Z,33.54
2018-05-26T15:27:08.286Z,33.57
2018-05-26T15:29:34.573Z,33.48
2018-05-26T15:32:01.604Z,33.63
2018-05-26T15:34:27.898Z,33.67
2018-05-26T15:36:54.161Z,33.60
2018-05-26T15:39:20.402Z,33.69
2018-05-26T15:41:46.673Z,33.26
2018-05-26T15:44:13.702Z,33.22
2018-05-26T15:46:40.015Z,33.19
2018-05-26T15:49:06.291Z,33.31
2018-05-26T15:51:33.356Z,33.14
2018-05-26T15:53:59.640Z,33.06
2018-05-26T15:56:25.913Z,33.12
2018-05-26T15:58:52.205Z,32.83
2018-05-26T16:01:18.542Z,32.47
2018-05-26T16:03:44.837Z,32.45
2018-05-26T16:06:11.102Z,32.17
2018-05-26T16:08:37.413Z,32.04
2018-05-26T16:11:03.669Z,31.98
2018-05-26T16:13:29.997Z,31.74
2018-05-26T16:15:56.285Z,31.69
2018-05-26T16:18:22.569Z,31.55
2018-05-26T16:20:48.857Z,31.49
2018-05-26T16:23:15.175Z,31.35
2018-05-26T16:25:41.461Z,31.39
2018-05-26T16:28:07.784Z,31.31
2018-05-26T16:30:34.798Z,31.28
2018-05-26T16:33:01.111Z,31.05
2018-05-26T16:35:27.409Z,31.15
2018-05-26T16:37:54.418Z,31.16
2018-05-26T16:40:20.725Z,31.24
2018-05-26T16:42:46.969Z,31.35
2018-05-26T16:45:13.303Z,31.28
2018-05-26T16:47:39.574Z,31.12
2018-05-26T16:50:05.874Z,31.14
2018-05-26T16:52:32.166Z,31.07
2018-05-26T16:54:59.199Z,30.99
2018-05-26T16:57:26.235Z,30.90
2018-05-26T16:59:52.562Z,30.86
2018-05-26T17:02:18.817Z,30.74
2018-05-26T17:04:45.081Z,30.65
2018-05-26T17:07:11.439Z,30.60
2018-05-26T17:09:37.811Z,30.47
2018-05-26T17:12:04.128Z,30.47
2018-05-26T17:14:30.472Z,30.45
2018-05-26T17:16:56.785Z,30.33
2018-05-26T17:19:23.348Z,30.18
2018-05-26T17:21:49.689Z,30.11
2018-05-26T17:24:15.997Z,29.91
2018-05-26T17:26:42.275Z,29.93
2018-05-26T17:29:08.601Z,29.85
2018-05-26T17:31:34.843Z,29.72
2018-05-26T17:34:01.117Z,29.63
2018-05-26T17:36:28.126Z,29.55
2018-05-26T17:38:54.431Z,29.53
2018-05-26T17:41:20.757Z,29.34
2018-05-26T17:43:47.801Z,29.20
2018-05-26T17:46:14.849Z,29.08
2018-05-26T17:48:41.926Z,29.02
2018-05-26T17:51:08.222Z,28.88
2018-05-26T17:53:35.309Z,28.79
2018-05-26T17:56:02.346Z,28.73
2018-05-26T17:58:28.653Z,28.63
2018-05-26T18:00:55.014Z,28.52
2018-05-26T18:03:21.289Z,28.39
2018-05-26T18:05:47.579Z,28.35
2018-05-26T18:08:13.952Z,28.22
2018-05-26T18:10:40.202Z,28.18
2018-05-26T18:13:06.538Z,28.16
2018-05-26T18:15:32.825Z,28.05
2018-05-26T18:17:59.129Z,27.76
2018-05-26T18:20:25.412Z,27.70
2018-05-26T18:22:52.446Z,27.73
2018-05-26T18:25:18.749Z,27.61
2018-05-26T18:27:46.886Z,27.55
2018-05-26T18:30:13.898Z,27.39
2018-05-26T18:32:40.310Z,27.33
2018-05-26T18:35:06.549Z,27.26
2018-05-26T18:37:32.797Z,27.08
2018-05-26T18:39:59.086Z,26.99
2018-05-26T18:42:26.080Z,26.88
2018-05-26T18:44:52.462Z,26.82
2018-05-26T18:47:18.881Z,26.63
2018-05-26T18:49:45.229Z,26.63
2018-05-26T18:52:11.489Z,26.59
2018-05-26T18:54:37.781Z,26.46
2018-05-26T18:57:04.060Z,26.31
2018-05-26T18:59:31.123Z,26.17
2018-05-26T19:01:57.532Z,26.01
2018-05-26T19:04:23.780Z,25.93
2018-05-26T19:06:50.836Z,25.80
2018-05-26T19:09:17.893Z,25.64
2018-05-26T19:11:44.985Z,25.44
2018-05-26T19:14:11.284Z,25.45
2018-05-26T19:16:38.337Z,25.44
2018-05-26T19:19:04.649Z,25.44
2018-05-26T19:21:31.951Z,25.20
2018-05-26T19:23:58.282Z,25.20
2018-05-26T19:26:24.582Z,25.09
2018-05-26T19:28:50.898Z,25.08
2018-05-26T19:31:17.197Z,25.05
2018-05-26T19:33:43.636Z,25.00
2018-05-26T19:36:09.932Z,24.81
2018-05-26T19:38:36.237Z,24.81
2018-05-26T19:41:02.550Z,24.56
2018-05-26T19:43:28.830Z,24.53
2018-05-26T19:45:55.133Z,24.49
2018-05-26T19:48:21.414Z,24.43
2018-05-26T19:50:47.697Z,24.22
2018-05-26T19:53:14.013Z,24.11
2018-05-26T19:55:40.309Z,24.00
2018-05-26T19:58:07.414Z,24.05
2018-05-26T20:00:33.702Z,23.91
2018-05-26T20:02:59.980Z,23.80
2018-05-26T20:05:26.325Z,23.70
2018-05-26T20:07:52.613Z,23.60
2018-05-26T20:10:18.899Z,23.50
2018-05-26T20:12:45.200Z,23.50
2018-05-26T20:15:11.474Z,23.18
2018-05-26T20:17:37.838Z,23.01
2018-05-26T20:20:04.157Z,22.93
2018-05-26T20:22:30.424Z,22.89
2018-05-26T20:24:56.686Z,22.91
2018-05-26T20:27:24.080Z,22.66
2018-05-26T20:29:50.381Z,22.71
2018-05-26T20:32:17.439Z,22.57
2018-05-26T20:34:43.768Z,22.62
2018-05-26T20:37:10.074Z,22.57
2018-05-26T20:39:36.395Z,22.67
2018-05-26T20:42:02.737Z,22.59
2018-05-26T20:44:28.962Z,22.44
2018-05-26T20:46:55.233Z,22.39
2018-05-26T20:49:21.545Z,22.10
2018-05-26T20:51:47.841Z,22.05
2018-05-26T20:54:14.094Z,21.75
2018-05-26T20:56:40.427Z,22.06
2018-05-26T20:59:06.721Z,21.93
2018-05-26T21:01:33.036Z,22.03
2018-05-26T21:03:59.338Z,22.18
2018-05-26T21:06:25.672Z,22.10
2018-05-26T21:08:52.017Z,21.68
2018-05-26T21:11:18.265Z,21.64
2018-05-26T21:13:44.599Z,21.67
2018-05-26T21:16:10.886Z,21.56
2018-05-26T21:18:37.131Z,21.54
2018-05-26T21:21:03.427Z,21.67
2018-05-26T21:23:29.699Z,21.47
2018-05-26T21:25:56.759Z,21.31
2018-05-26T21:28:23.017Z,21.29
2018-05-26T21:30:49.302Z,21.32
2018-05-26T21:33:15.560Z,21.29
2018-05-26T21:35:42.555Z,21.30
2018-05-26T21:38:08.857Z,21.19
2018-05-26T21:40:35.187Z,21.21
2018-05-26T21:43:02.194Z,21.31
2018-05-26T21:45:28.500Z,20.95
2018-05-26T21:47:54.806Z,20.85
2018-05-26T21:50:21.870Z,20.91
2018-05-26T21:52:48.187Z,20.88
2018-05-26T21:55:14.488Z,20.62
2018-05-26T21:57:40.798Z,20.44
2018-05-26T22:00:07.034Z,20.47
2018-05-26T22:02:33.335Z,20.45
2018-05-26T22:04:59.670Z,20.43
2018-05-26T22:07:26.689Z,20.37
2018-05-26T22:09:52.950Z,20.26
2018-05-26T22:12:20.005Z,20.24
2018-05-26T22:14:47.017Z,20.40
2018-05-26T22:17:13.345Z,20.34
2018-05-26T22:19:39.673Z,20.31
2018-05-26T22:22:05.941Z,20.16
2018-05-26T22:24:32.242Z,20.08
2018-05-26T22:26:58.521Z,20.04
2018-05-26T22:29:24.790Z,19.86
2018-05-26T22:31:51.829Z,19.90
2018-05-26T22:34:18.853Z,19.78
2018-05-26T22:36:45.134Z,19.75
2018-05-26T22:39:11.530Z,19.75
2018-05-26T22:41:37.798Z,19.84
2018-05-26T22:44:04.827Z,19.77
2018-05-26T22:46:31.136Z,19.92
2018-05-26T22:48:57.417Z,19.94
2018-05-26T22:51:24.405Z,19.93
2018-05-26T22:53:50.699Z,19.82
2018-05-26T22:56:17.782Z,19.71
2018-05-26T22:58:44.117Z,19.64
2018-05-26T23:01:10.394Z,19.60
2018-05-26T23:03:36.669Z,19.48
2018-05-26T23:06:03.069Z,19.58
2018-05-26T23:08:29.381Z,19.44
2018-05-26T23:10:55.718Z,19.36
2018-05-26T23:13:22.010Z,19.27
2018-05-26T23:15:48.846Z,19.19
2018-05-26T23:18:15.207Z,18.99
2018-05-26T23:20:42.253Z,18.95
2018-05-26T23:23:09.301Z,18.96
2018-05-26T23:25:36.354Z,18.89
2018-05-26T23:28:03.418Z,19.07
2018-05-26T23:30:30.460Z,18.99
2018-05-26T23:32:57.484Z,19.10
2018-05-26T23:35:23.774Z,18.95
2018-05-26T23:37:50.084Z,18.96
2018-05-26T23:40:17.134Z,18.93
2018-05-26T23:42:43.398Z,18.83
2018-05-26T23:45:09.761Z,18.87
2018-05-26T23:47:36.024Z,18.84
2018-05-26T23:50:02.334Z,18.69
2018-05-26T23:52:28.642Z,18.53
2018-05-26T23:54:54.952Z,18.62
2018-05-26T23:57:22.027Z,18.55
2018-05-26T23:59:49.042Z,18.65
